Time;durP1;ratioP1;P1;durP2;ratioP2;P2;SDS_P1;SDS_P2;PMS_P1;PMS_P2;Temp;Humidity;BMP_temperature;BMP_pressure;BME280_temperature;BME280_humidity;BME280_pressure;Samples;Min_cycle;Max_cycle;Signal;HPM_P1;HPM_P2
2024/03/04 00:00:26;;;;;;;28.25;15.48;;;9.70;92.70;;;;;;2603131;54;20953;31
2024/03/04 00:03:05;;;;;;;24.05;14.02;;;9.70;93.20;;;;;;2602972;54;20909;31
2024/03/04 00:05:40;;;;;;;22.42;13.82;;;9.60;94.10;;;;;;2603028;54;20034;31
2024/03/04 00:08:18;;;;;;;24.93;14.07;;;9.60;94.10;;;;;;2603175;54;20904;31
2024/03/04 00:10:56;;;;;;;25.10;14.55;;;9.60;93.80;;;;;;2602994;54;20841;31
2024/03/04 00:13:32;;;;;;;26.00;14.90;;;9.50;94.50;;;;;;2602954;54;20026;31
2024/03/04 00:16:09;;;;;;;;;;;9.50;95.60;;;;;;2603254;54;20027;31
2024/03/04 00:18:47;;;;;;;21.83;13.30;;;9.50;97.10;;;;;;2602845;54;20789;31
2024/03/04 00:21:21;;;;;;;27.00;15.00;;;9.40;96.80;;;;;;2621612;46;20037;31
2024/03/04 00:24:02;;;;;;;20.33;12.75;;;9.40;97.20;;;;;;2602297;54;20030;31
2024/03/04 00:26:38;;;;;;;22.92;13.55;;;9.30;98.50;;;;;;2602784;54;20027;31
2024/03/04 00:29:13;;;;;;;23.10;15.30;;;9.30;98.60;;;;;;2602798;54;20117;31
2024/03/04 00:31:48;;;;;;;25.35;14.25;;;9.20;99.50;;;;;;2602913;54;21140;31
2024/03/04 00:34:27;;;;;;;24.85;13.15;;;9.20;99.50;;;;;;2602893;54;20882;31
2024/03/04 00:37:03;;;;;;;24.45;14.85;;;9.20;98.60;;;;;;2602847;54;20855;31
2024/03/04 00:39:42;;;;;;;25.35;14.50;;;9.20;99.90;;;;;;2620508;46;20884;31
2024/03/04 00:42:18;;;;;;;22.08;13.35;;;9.10;99.90;;;;;;2602945;54;20072;31
2024/03/04 00:44:56;;;;;;;27.88;15.52;;;9.10;99.90;;;;;;2602705;54;20032;31
2024/03/04 00:47:36;;;;;;;23.70;13.80;;;9.00;99.90;;;;;;2621282;46;20917;31
2024/03/04 00:50:10;;;;;;;23.40;14.02;;;9.00;99.90;;;;;;2602527;54;20049;31
2024/03/04 00:52:48;;;;;;;23.00;14.90;;;9.00;99.90;;;;;;2621215;46;20022;31
2024/03/04 00:55:29;;;;;;;26.45;15.25;;;9.00;99.90;;;;;;2602963;54;20064;31
2024/03/04 00:58:09;;;;;;;22.90;12.98;;;9.00;99.90;;;;;;2602098;54;20018;31
2024/03/04 01:00:47;;;;;;;25.02;14.30;;;9.00;99.90;;;;;;2602726;54;20038;31
2024/03/04 01:03:22;;;;;;;23.27;14.13;;;9.00;99.90;;;;;;2621546;46;20888;31
2024/03/04 01:06:00;;;;;;;24.30;14.55;;;8.90;99.90;;;;;;2621295;46;20033;31
2024/03/04 01:08:36;;;;;;;26.13;14.63;;;8.80;99.90;;;;;;2602672;54;20026;31
2024/03/04 01:11:17;;;;;;;25.25;14.55;;;8.80;99.90;;;;;;2602709;54;20031;31
2024/03/04 01:13:53;;;;;;;24.60;14.63;;;8.80;99.90;;;;;;2602606;54;20035;31
2024/03/04 01:16:33;;;;;;;24.13;14.60;;;8.80;99.90;;;;;;2602756;54;20054;31
2024/03/04 01:19:09;;;;;;;24.13;14.23;;;8.80;99.90;;;;;;2602677;54;20034;31
2024/03/04 01:21:44;;;;;;;;;;;8.70;99.90;;;;;;2602948;54;20038;31
2024/03/04 01:24:19;;;;;;;26.40;14.60;;;8.70;99.90;;;;;;2602797;54;20684;31
2024/03/04 01:26:58;;;;;;;22.40;14.40;;;8.70;99.90;;;;;;2602825;54;20042;31
2024/03/04 01:29:34;;;;;;;26.60;14.10;;;8.60;99.90;;;;;;2602764;54;20765;31
2024/03/04 01:32:13;;;;;;;26.50;15.95;;;8.60;99.90;;;;;;2602587;54;20784;31
2024/03/04 01:34:49;;;;;;;25.87;16.37;;;8.60;99.90;;;;;;2620899;46;20023;31
2024/03/04 01:37:25;;;;;;;26.07;16.10;;;8.50;99.90;;;;;;2602774;54;20026;31
2024/03/04 01:40:03;;;;;;;28.40;14.43;;;8.50;99.90;;;;;;2602751;54;20234;31
2024/03/04 01:42:43;;;;;;;24.33;14.47;;;8.50;99.90;;;;;;2601885;54;20041;31
2024/03/04 01:45:26;;;;;;;25.83;15.90;;;8.50;99.90;;;;;;2621098;46;21857;31
2024/03/04 01:48:06;;;;;;;27.50;15.18;;;8.50;99.90;;;;;;2602487;54;21170;31
2024/03/04 01:50:46;;;;;;;30.25;15.35;;;8.50;99.90;;;;;;2601756;54;20904;31
2024/03/04 01:53:21;;;;;;;29.63;16.03;;;8.50;99.90;;;;;;2602629;54;20831;31
2024/03/04 01:56:02;;;;;;;30.10;17.05;;;8.40;99.90;;;;;;2602555;54;20030;31
2024/03/04 01:58:44;;;;;;;27.48;16.35;;;8.40;99.90;;;;;;2602662;54;20034;31
2024/03/04 02:01:25;;;;;;;31.80;18.20;;;8.40;99.90;;;;;;2602601;54;20097;31
2024/03/04 02:04:04;;;;;;;30.45;18.05;;;8.40;99.90;;;;;;2701152;39;21122;31
2024/03/04 02:06:40;;;;;;;31.00;20.60;;;8.40;99.90;;;;;;2602535;54;20050;31
2024/03/04 02:09:17;;;;;;;33.70;18.92;;;8.40;99.90;;;;;;2602020;54;20030;31
2024/03/04 02:11:54;;;;;;;31.15;18.75;;;8.40;99.90;;;;;;2602676;54;20037;31
2024/03/04 02:14:29;;;;;;;28.08;16.95;;;8.40;99.90;;;;;;2602466;54;20854;31
2024/03/04 02:17:08;;;;;;;34.63;18.17;;;8.40;99.90;;;;;;2602593;54;20030;31
2024/03/04 02:19:45;;;;;;;32.88;18.33;;;8.30;99.90;;;;;;2620800;46;20088;31
2024/03/04 02:22:27;;;;;;;30.60;17.85;;;8.30;99.90;;;;;;2620587;46;20026;31
2024/03/04 02:25:03;;;;;;;28.97;18.53;;;8.30;99.90;;;;;;2602513;54;20766;31
2024/03/04 02:27:42;;;;;;;31.37;18.73;;;8.30;99.90;;;;;;2602592;54;20026;31
2024/03/04 02:30:19;;;;;;;30.20;19.30;;;8.30;99.90;;;;;;2602443;54;20235;31
2024/03/04 02:32:55;;;;;;;32.47;18.63;;;8.20;99.90;;;;;;2613535;46;20090;31
2024/03/04 02:35:33;;;;;;;33.97;20.92;;;8.20;99.90;;;;;;2602434;54;20250;31
2024/03/04 02:38:13;;;;;;;31.25;18.70;;;8.20;99.90;;;;;;2602514;54;20731;31
2024/03/04 02:40:48;;;;;;;30.48;18.10;;;8.20;99.90;;;;;;2602258;54;20890;31
2024/03/04 02:43:26;;;;;;;29.60;18.33;;;8.20;99.90;;;;;;2701417;39;22375;31
2024/03/04 02:46:03;;;;;;;28.70;18.58;;;8.20;99.90;;;;;;2601627;54;20026;31
2024/03/04 02:48:40;;;;;;;34.28;20.00;;;8.10;99.90;;;;;;2602613;54;20030;31
2024/03/04 02:51:15;;;;;;;31.95;18.95;;;8.10;99.90;;;;;;2602626;54;20777;31
2024/03/04 02:53:55;;;;;;;;;;;8.10;99.90;;;;;;2602671;54;20931;31
2024/03/04 02:56:30;;;;;;;33.92;19.27;;;8.10;99.90;;;;;;2602516;54;19946;31
2024/03/04 02:59:08;;;;;;;30.47;19.43;;;8.10;99.90;;;;;;2602321;54;20030;31
2024/03/04 03:01:47;;;;;;;35.20;20.70;;;8.00;99.90;;;;;;2602222;54;20023;31
2024/03/04 03:04:27;;;;;;;32.40;18.75;;;8.00;99.90;;;;;;2601738;54;20030;31
2024/03/04 03:07:05;;;;;;;32.72;19.98;;;8.00;99.90;;;;;;2602826;54;20023;31
2024/03/04 03:09:49;;;;;;;33.83;20.30;;;8.00;99.90;;;;;;2602562;54;20031;31
2024/03/04 03:12:26;;;;;;;32.63;20.30;;;8.00;99.90;;;;;;2620333;47;20092;31
2024/03/04 03:15:02;;;;;;;39.40;21.73;;;7.90;99.90;;;;;;2602462;54;20908;31
2024/03/04 03:17:38;;;;;;;34.25;20.85;;;7.90;99.90;;;;;;2602400;54;21315;31
2024/03/04 03:20:16;;;;;;;36.80;21.40;;;7.90;99.90;;;;;;2602456;54;20128;31
2024/03/04 03:22:54;;;;;;;39.75;21.92;;;7.80;99.90;;;;;;2602490;54;20054;31
2024/03/04 03:25:36;;;;;;;38.25;22.80;;;7.80;99.90;;;;;;2602633;54;22372;31
2024/03/04 03:28:13;;;;;;;39.00;23.00;;;7.80;99.90;;;;;;2602226;54;20734;31
2024/03/04 03:30:53;;;;;;;38.42;22.55;;;7.70;99.90;;;;;;2602240;54;20904;31
2024/03/04 03:33:33;;;;;;;38.30;22.90;;;7.70;99.90;;;;;;2601639;54;20936;31
2024/03/04 03:36:07;;;;;;;42.55;24.38;;;7.70;99.90;;;;;;2719237;39;22296;31
2024/03/04 03:38:46;;;;;;;37.35;22.90;;;7.70;99.90;;;;;;2602477;54;20038;31
2024/03/04 03:41:27;;;;;;;36.95;22.52;;;7.70;99.90;;;;;;2602401;54;20904;31
2024/03/04 03:44:05;;;;;;;38.23;22.47;;;7.70;99.90;;;;;;2602237;54;20026;31
2024/03/04 03:46:42;;;;;;;37.50;23.13;;;7.60;99.90;;;;;;2602463;54;20943;31
2024/03/04 03:49:24;;;;;;;39.50;22.97;;;7.60;99.90;;;;;;2620695;47;20023;31
2024/03/04 03:52:03;;;;;;;39.97;23.35;;;7.60;99.90;;;;;;2602234;54;20033;31
2024/03/04 03:54:38;;;;;;;35.80;21.75;;;7.60;99.90;;;;;;2602195;54;20731;31
2024/03/04 03:57:19;;;;;;;37.40;22.58;;;7.60;99.90;;;;;;2620870;47;20030;31
2024/03/04 03:59:57;;;;;;;39.30;23.35;;;7.50;99.90;;;;;;2602209;54;20917;31
2024/03/04 04:02:31;;;;;;;36.07;21.23;;;7.50;99.90;;;;;;2602306;54;20026;31
2024/03/04 04:05:10;;;;;;;38.88;23.73;;;7.50;99.90;;;;;;2601507;54;20918;31
2024/03/04 04:07:49;;;;;;;38.05;24.83;;;7.50;99.90;;;;;;2601169;54;20025;31
2024/03/04 04:10:27;;;;;;;33.40;22.00;;;7.50;99.90;;;;;;2602405;54;20097;31
2024/03/04 04:13:11;;;;;;;36.40;21.73;;;7.40;99.90;;;;;;2603150;54;20030;31
2024/03/04 04:15:49;;;;;;;33.80;20.25;;;7.40;99.90;;;;;;2603260;54;20818;31
2024/03/04 04:18:25;;;;;;;36.40;21.10;;;7.40;99.90;;;;;;2603171;54;20027;31
2024/03/04 04:21:06;;;;;;;38.20;22.80;;;7.40;99.90;;;;;;2602327;54;20242;31
2024/03/04 04:23:42;;;;;;;36.85;21.88;;;7.30;99.90;;;;;;2603089;54;21070;31
2024/03/04 04:26:26;;;;;;;33.73;21.53;;;7.30;99.90;;;;;;2602415;54;20041;31
2024/03/04 04:29:05;;;;;;;36.72;21.48;;;7.30;99.90;;;;;;2603115;54;20250;31
2024/03/04 04:31:43;;;;;;;35.92;21.83;;;7.30;99.90;;;;;;2602875;54;20049;31
2024/03/04 04:34:21;;;;;;;40.05;22.73;;;7.20;99.90;;;;;;2602832;54;20038;31
2024/03/04 04:37:01;;;;;;;34.60;20.80;;;7.20;99.90;;;;;;2700634;39;20444;31
2024/03/04 04:39:40;;;;;;;37.35;22.33;;;7.20;99.90;;;;;;2602851;54;20939;31
2024/03/04 04:42:24;;;;;;;34.57;20.60;;;7.20;99.90;;;;;;2602726;54;20026;31
2024/03/04 04:45:02;;;;;;;39.03;21.65;;;7.20;99.90;;;;;;2602911;54;20098;31
2024/03/04 04:47:38;;;;;;;33.83;21.92;;;7.20;99.90;;;;;;2602913;54;20030;31
2024/03/04 04:50:15;;;;;;;;;;;7.10;99.90;;;;;;2603582;54;20864;31
2024/03/04 04:52:56;;;;;;;36.97;22.25;;;7.10;99.90;;;;;;2602748;54;20736;31
2024/03/04 04:55:36;;;;;;;38.40;20.65;;;7.10;99.90;;;;;;2603184;54;20775;31
2024/03/04 04:58:13;;;;;;;39.38;23.23;;;7.00;99.90;;;;;;2602965;54;20758;31
2024/03/04 05:00:52;;;;;;;36.65;22.40;;;7.00;99.90;;;;;;2602155;54;20979;31
2024/03/04 05:03:30;;;;;;;37.25;21.92;;;7.00;99.90;;;;;;2602947;54;20030;31
2024/03/04 05:06:29;;;;;;;38.75;23.25;;;7.00;99.90;;;;;;2620328;46;20022;31
2024/03/04 05:09:05;;;;;;;36.17;22.35;;;7.00;99.90;;;;;;2602044;54;20037;31
2024/03/04 05:11:50;;;;;;;34.30;20.70;;;7.00;99.90;;;;;;2620782;46;20792;31
2024/03/04 05:14:26;;;;;;;34.95;21.17;;;7.00;99.90;;;;;;2621573;46;20723;31
2024/03/04 05:17:07;;;;;;;41.05;22.95;;;6.90;99.90;;;;;;2602850;54;20786;31
2024/03/04 05:19:47;;;;;;;35.38;21.55;;;6.90;99.90;;;;;;2602971;54;20760;31
2024/03/04 05:22:24;;;;;;;37.25;22.08;;;6.90;99.90;;;;;;2602772;54;20838;31
2024/03/04 05:25:02;;;;;;;38.50;24.02;;;6.80;99.90;;;;;;2621328;46;20034;31
2024/03/04 05:27:40;;;;;;;40.72;23.73;;;6.80;99.90;;;;;;2603057;54;20026;31
2024/03/04 05:30:18;;;;;;;36.55;21.38;;;6.80;99.90;;;;;;2602853;54;20936;31
2024/03/04 05:32:59;;;;;;;42.85;24.50;;;6.80;99.90;;;;;;2602731;54;20841;31
2024/03/04 05:35:36;;;;;;;40.45;23.55;;;6.80;99.90;;;;;;2602892;54;20757;31
2024/03/04 05:38:15;;;;;;;38.60;23.67;;;6.70;99.90;;;;;;2603078;54;20868;31
2024/03/04 05:40:52;;;;;;;39.15;23.70;;;6.70;99.90;;;;;;2621192;46;20053;31
2024/03/04 05:43:30;;;;;;;39.28;25.52;;;6.70;99.90;;;;;;2602703;54;20034;31
2024/03/04 05:46:11;;;;;;;39.97;23.58;;;6.70;99.90;;;;;;2602918;54;20848;31
2024/03/04 05:48:55;;;;;;;37.55;23.67;;;6.70;99.90;;;;;;2602699;54;20765;31
2024/03/04 05:51:31;;;;;;;41.97;24.58;;;6.70;99.90;;;;;;2602713;54;20131;31
2024/03/04 05:54:09;;;;;;;39.90;23.80;;;6.70;99.90;;;;;;2621404;46;20098;31
2024/03/04 05:56:45;;;;;;;42.78;25.23;;;6.70;99.90;;;;;;2602779;54;20168;31
2024/03/04 05:59:21;;;;;;;;;;;6.70;99.90;;;;;;2602885;54;20023;31
2024/03/04 06:02:14;;;;;;;45.53;24.13;;;6.80;99.90;;;;;;2602639;54;19957;31
2024/03/04 06:05:01;;;;;;;39.70;23.42;;;6.90;99.90;;;;;;2603125;54;21289;31
2024/03/04 06:07:40;;;;;;;39.80;23.10;;;7.00;99.90;;;;;;2602081;54;20022;31
2024/03/04 06:10:19;;;;;;;37.70;22.85;;;7.20;99.90;;;;;;2621750;46;20761;31
2024/03/04 06:12:55;;;;;;;38.72;23.67;;;7.40;99.90;;;;;;2602688;54;20183;31
2024/03/04 06:15:31;;;;;;;36.45;22.33;;;7.60;99.90;;;;;;2602750;54;20858;31
2024/03/04 06:18:07;;;;;;;;;;;7.90;99.90;;;;;;2602632;54;20929;31
2024/03/04 06:20:47;;;;;;;32.78;21.77;;;8.10;99.90;;;;;;2602938;54;20742;31
2024/03/04 06:23:25;;;;;;;35.90;20.85;;;8.40;99.90;;;;;;2602579;54;20739;31
2024/03/04 06:26:04;;;;;;;36.20;21.08;;;8.60;99.90;;;;;;2602625;54;20034;31
2024/03/04 06:28:41;;;;;;;35.63;21.00;;;8.90;99.90;;;;;;2602590;54;20037;31
2024/03/04 06:31:19;;;;;;;33.20;21.60;;;9.10;99.90;;;;;;2620999;46;20042;31
2024/03/04 06:33:57;;;;;;;40.15;22.40;;;9.40;98.00;;;;;;2602172;54;20146;31
2024/03/04 06:36:53;;;;;;;41.63;22.88;;;9.60;94.60;;;;;;2602750;54;21876;31
2024/03/04 06:39:28;;;;;;;35.13;21.90;;;9.90;91.10;;;;;;2602646;54;20052;31
2024/03/04 06:42:04;;;;;;;34.45;21.45;;;10.10;93.50;;;;;;2620774;46;21035;31
2024/03/04 06:44:40;;;;;;;;;;;10.30;99.90;;;;;;2602590;54;20165;31
2024/03/04 06:47:22;;;;;;;33.93;20.27;;;10.50;99.90;;;;;;2602498;54;20680;31
2024/03/04 06:49:56;;;;;;;33.70;21.80;;;10.80;99.90;;;;;;2602333;54;20884;31
2024/03/04 06:52:36;;;;;;;38.97;21.83;;;10.90;99.90;;;;;;2602461;54;20100;31
2024/03/04 06:55:14;;;;;;;37.27;19.67;;;11.10;99.90;;;;;;2602455;54;20353;31
2024/03/04 06:57:54;;;;;;;34.40;22.55;;;11.40;99.90;;;;;;2602396;54;20026;31
2024/03/04 07:00:32;;;;;;;37.33;22.57;;;11.50;99.90;;;;;;2602648;54;20874;31
2024/03/04 07:03:11;;;;;;;34.90;22.50;;;11.80;99.90;;;;;;2602660;54;20745;31
2024/03/04 07:05:47;;;;;;;37.60;23.38;;;12.00;99.90;;;;;;2719600;39;21472;31
2024/03/04 07:08:27;;;;;;;34.42;21.63;;;12.20;99.90;;;;;;2602361;54;20027;31
2024/03/04 07:11:09;;;;;;;39.90;22.92;;;12.40;99.90;;;;;;2602547;54;21233;31
2024/03/04 07:13:44;;;;;;;39.63;22.75;;;12.40;99.90;;;;;;2602595;54;20883;31
2024/03/04 07:16:22;;;;;;;39.78;23.70;;;12.40;99.90;;;;;;2602300;54;20731;31
2024/03/04 07:18:59;;;;;;;41.47;23.47;;;12.50;99.90;;;;;;2602604;54;20077;31
2024/03/04 07:21:38;;;;;;;38.27;22.73;;;12.70;99.90;;;;;;2620934;47;20376;31
2024/03/04 07:24:21;;;;;;;36.30;22.30;;;12.70;99.90;;;;;;2620950;47;20053;31
2024/03/04 07:27:04;;;;;;;37.72;23.13;;;12.80;99.90;;;;;;2602502;54;20059;31
2024/03/04 07:29:41;;;;;;;39.40;21.65;;;12.90;99.90;;;;;;2602490;54;20046;31
2024/03/04 07:32:29;;;;;;;35.10;22.25;;;13.20;99.90;;;;;;2602507;54;20857;31
2024/03/04 07:35:08;;;;;;;36.97;22.55;;;13.30;99.90;;;;;;2621195;47;20120;31
2024/03/04 07:38:35;;;;;;;38.63;21.65;;;13.40;99.90;;;;;;2621171;47;20030;31
2024/03/04 07:51:36;;;;;;;;;;;;;;;;;;;;;
2024/03/04 08:24:15;;;;;;;32.00;22.77;;;15.30;99.90;;;;;;2602317;54;20026;31
2024/03/04 08:27:05;;;;;;;35.88;23.52;;;15.50;99.90;;;;;;2603189;54;20318;31
2024/03/04 08:30:00;;;;;;;35.40;21.92;;;15.90;99.90;;;;;;2621700;46;20081;31
2024/03/04 08:33:08;;;;;;;35.33;22.63;;;15.80;99.90;;;;;;2603162;54;20026;31
2024/03/04 08:36:04;;;;;;;34.03;21.17;;;15.90;99.90;;;;;;2602970;54;20029;31
2024/03/04 08:38:42;;;;;;;34.45;22.00;;;16.00;99.90;;;;;;2603432;54;20903;31
2024/03/04 08:44:53;;;;;;;34.42;21.73;;;15.80;99.90;;;;;;2603097;54;20030;31
2024/03/04 08:47:53;;;;;;;33.35;21.70;;;16.00;99.90;;;;;;2603478;54;20734;31
2024/03/04 08:50:49;;;;;;;36.45;22.48;;;16.10;99.90;;;;;;2621769;46;20033;31
2024/03/04 08:53:42;;;;;;;39.90;24.48;;;16.30;99.90;;;;;;2602807;54;20077;31
2024/03/04 08:56:33;;;;;;;34.67;22.73;;;16.40;99.90;;;;;;2621196;46;20045;31
2024/03/04 09:14:49;;;;;;;30.50;20.80;;;17.30;99.90;;;;;;2603233;54;20055;31
2024/03/04 09:17:54;;;;;;;32.28;22.30;;;17.40;99.90;;;;;;2603350;54;20923;31
2024/03/04 09:20:34;;;;;;;30.38;20.90;;;17.40;99.90;;;;;;2602345;54;20038;31
2024/03/04 09:23:16;;;;;;;31.40;21.70;;;17.70;99.90;;;;;;2602616;54;20757;31
2024/03/04 09:26:01;;;;;;;31.65;21.15;;;17.80;99.90;;;;;;2621501;46;21244;31
2024/03/04 09:34:34;;;;;;;27.65;20.73;;;18.00;99.90;;;;;;2602497;54;20090;31
2024/03/04 09:37:52;;;;;;;31.55;22.98;;;18.10;99.90;;;;;;2603032;54;20050;31
2024/03/04 09:40:51;;;;;;;38.92;23.00;;;18.30;99.90;;;;;;2603047;54;20034;31
2024/03/04 09:43:45;;;;;;;41.33;28.08;;;18.50;99.90;;;;;;2603006;54;20046;31
2024/03/04 09:49:37;;;;;;;37.22;22.85;;;18.50;99.90;;;;;;2602918;54;20253;31
2024/03/04 09:52:19;;;;;;;34.90;22.10;;;18.50;99.90;;;;;;2603094;54;20769;31
2024/03/04 09:54:55;;;;;;;34.00;22.33;;;18.40;99.90;;;;;;2602883;54;20026;31
2024/03/04 09:57:41;;;;;;;35.60;25.10;;;18.20;99.90;;;;;;2603189;54;20766;31
2024/03/04 10:00:28;;;;;;;31.70;21.23;;;18.20;99.90;;;;;;2602208;54;20253;31
2024/03/04 10:03:11;;;;;;;33.65;22.00;;;18.20;99.90;;;;;;2602983;54;20026;31
2024/03/04 10:05:51;;;;;;;37.80;22.50;;;18.10;99.90;;;;;;2621563;46;20053;31
2024/03/04 10:08:29;;;;;;;33.10;20.90;;;18.30;99.90;;;;;;2602821;54;20847;31
2024/03/04 10:11:10;;;;;;;31.23;19.10;;;18.30;99.90;;;;;;2603191;54;20026;31
2024/03/04 10:13:53;;;;;;;29.92;20.30;;;18.20;99.90;;;;;;2621391;46;20329;31
2024/03/04 10:16:36;;;;;;;28.00;18.50;;;18.00;99.90;;;;;;2603121;54;20033;31
2024/03/04 10:19:14;;;;;;;29.38;19.85;;;18.00;99.90;;;;;;2603175;54;20246;31
2024/03/04 10:21:55;;;;;;;30.40;20.48;;;18.00;99.90;;;;;;2603084;54;20026;31
2024/03/04 10:24:37;;;;;;;30.50;19.80;;;18.10;99.90;;;;;;2602984;54;20030;31
2024/03/04 10:27:13;;;;;;;30.45;20.38;;;18.20;99.90;;;;;;2602856;54;20034;31
2024/03/04 10:29:56;;;;;;;;;;;18.20;99.90;;;;;;2603262;54;20867;31
2024/03/04 10:32:38;;;;;;;31.80;19.15;;;18.40;99.90;;;;;;2602665;54;20761;31
2024/03/04 10:35:22;;;;;;;36.25;18.65;;;18.50;99.90;;;;;;2602925;54;20850;31
2024/03/04 10:41:09;;;;;;;27.73;18.20;;;18.50;99.90;;;;;;2602991;54;20871;31
2024/03/04 10:43:59;;;;;;;23.40;16.50;;;18.50;99.90;;;;;;2602864;54;20053;31
2024/03/04 10:46:43;;;;;;;26.02;16.38;;;18.40;99.90;;;;;;2621298;46;20022;31
2024/03/04 10:49:24;;;;;;;29.27;18.55;;;18.30;99.90;;;;;;2602731;54;20855;31
2024/03/04 10:52:04;;;;;;;23.20;16.80;;;18.50;99.90;;;;;;2602869;54;20924;31
2024/03/04 10:55:07;;;;;;;26.50;17.65;;;18.50;99.90;;;;;;2602846;54;20769;31
2024/03/04 10:58:04;;;;;;;24.25;16.33;;;18.40;99.90;;;;;;2621572;46;20854;31
2024/03/04 11:01:10;;;;;;;24.25;16.80;;;18.50;99.90;;;;;;2602522;54;20030;31
2024/03/04 11:04:02;;;;;;;20.70;14.57;;;18.40;99.90;;;;;;2602764;54;20026;31
2024/03/04 11:11:04;;;;;;;20.77;14.50;;;18.20;99.90;;;;;;2602618;54;20790;31
2024/03/04 11:19:55;;;;;;;26.40;18.25;;;18.10;99.90;;;;;;2602152;54;20135;31
2024/03/04 11:37:32;;;;;;;25.10;16.35;;;17.70;99.90;;;;;;2602937;54;20042;31
2024/03/04 11:40:36;;;;;;;26.60;18.93;;;17.60;99.90;;;;;;2603394;54;20831;31
2024/03/04 11:49:24;;;;;;;29.40;19.42;;;17.40;99.90;;;;;;2602754;54;20773;31
2024/03/04 11:55:10;;;;;;;27.60;18.10;;;17.00;99.90;;;;;;2603224;54;21254;31
2024/03/04 11:58:08;;;;;;;27.75;17.73;;;17.00;99.90;;;;;;2603077;54;21180;31
2024/03/04 12:03:22;;;;;;;25.93;18.07;;;16.90;99.90;;;;;;2603558;54;21527;31
2024/03/04 12:06:18;;;;;;;27.25;17.38;;;16.80;99.90;;;;;;2603473;54;20944;31
2024/03/04 12:34:04;;;;;;;29.80;20.00;;;16.50;99.90;;;;;;2601502;54;20877;31
2024/03/04 13:03:08;;;;;;;54.20;33.83;;;15.20;99.90;;;;;;2611160;54;20023;31
2024/03/04 13:18:31;;;;;;;56.63;35.80;;;14.20;99.90;;;;;;2602480;54;20031;31
2024/03/04 13:24:26;;;;;;;60.95;37.28;;;14.00;99.90;;;;;;2631146;54;20018;-96
2024/03/04 14:31:05;;;;;;;59.95;34.40;;;12.60;99.90;;;;;;2601222;54;20026;31
2024/03/04 14:40:37;;;;;;;;;;;;;;;;;;;;;
2024/03/04 16:20:59;;;;;;;59.38;30.90;;;10.00;99.90;;;;;;2611399;54;20776;31
2024/03/04 16:23:39;;;;;;;68.18;33.25;;;9.90;99.90;;;;;;2621640;46;20027;31
2024/03/04 16:26:17;;;;;;;67.97;34.60;;;9.90;99.90;;;;;;2603117;54;20022;31
2024/03/04 16:34:43;;;;;;;66.15;35.92;;;9.80;99.90;;;;;;2602759;54;20023;31
2024/03/04 16:40:26;;;;;;;69.43;39.60;;;9.80;99.90;;;;;;2602913;54;20038;31
2024/03/04 16:43:09;;;;;;;66.15;33.20;;;9.80;99.90;;;;;;2603144;54;20888;31
2024/03/04 16:45:41;;;;;;;60.70;32.30;;;9.80;99.90;;;;;;2603116;54;20904;31
2024/03/04 16:48:19;;;;;;;59.67;31.55;;;9.80;99.90;;;;;;2602940;54;20121;31
2024/03/04 16:56:17;;;;;;;58.88;31.00;;;9.60;99.90;;;;;;2602797;54;20037;31
2024/03/04 16:58:55;;;;;;;61.40;31.00;;;9.60;99.90;;;;;;2602669;54;20113;31
2024/03/04 17:01:39;;;;;;;60.95;30.05;;;9.60;99.90;;;;;;2602849;54;20749;31
2024/03/04 17:13:22;;;;;;;63.10;32.30;;;9.60;99.90;;;;;;2602704;54;20793;31
2024/03/04 17:15:59;;;;;;;60.90;29.63;;;9.50;99.90;;;;;;2602889;54;20753;31
2024/03/04 17:18:34;;;;;;;69.87;34.50;;;9.50;99.90;;;;;;2621226;46;20038;31
2024/03/04 17:21:14;;;;;;;65.45;31.95;;;9.50;99.90;;;;;;2621274;46;20033;31
2024/03/04 17:23:56;;;;;;;59.25;30.70;;;9.40;99.90;;;;;;2602688;54;20037;31
2024/03/04 17:26:32;;;;;;;56.95;30.15;;;9.40;99.90;;;;;;2602806;54;20081;31
2024/03/04 17:29:13;;;;;;;57.72;29.75;;;9.30;99.90;;;;;;2602814;54;20108;31
2024/03/04 17:31:58;;;;;;;54.15;29.50;;;9.30;99.90;;;;;;2620713;46;20788;31
2024/03/04 17:40:17;;;;;;;53.03;28.37;;;9.30;99.90;;;;;;2600750;54;20231;31
2024/03/04 17:42:56;;;;;;;58.45;28.88;;;9.30;99.90;;;;;;2602344;54;21428;31
2024/03/04 17:51:33;;;;;;;59.13;29.70;;;9.20;99.90;;;;;;2602739;54;20030;31
2024/03/04 17:59:49;;;;;;;57.42;28.95;;;9.10;99.90;;;;;;2632469;54;20022;-93
2024/03/04 18:02:35;;;;;;;65.32;29.95;;;9.10;99.90;;;;;;2615617;46;20044;31
2024/03/04 18:05:27;;;;;;;57.55;29.60;;;9.20;99.90;;;;;;2602402;54;20069;31
2024/03/04 18:08:09;;;;;;;58.42;29.63;;;9.20;99.90;;;;;;2621027;46;20034;31
2024/03/04 18:10:50;;;;;;;55.10;29.15;;;9.20;99.90;;;;;;2602711;54;20033;31
2024/03/04 18:13:29;;;;;;;55.67;29.70;;;9.20;99.90;;;;;;2602602;54;20030;31
2024/03/04 18:16:16;;;;;;;57.53;30.50;;;9.30;99.90;;;;;;2602784;54;20215;31
2024/03/04 18:18:57;;;;;;;59.35;31.80;;;9.20;99.90;;;;;;2602573;54;20033;31
2024/03/04 18:21:50;;;;;;;;;;;;;;;;;;;;;
2024/03/04 18:24:30;;;;;;;57.67;29.95;;;9.20;99.90;;;;;;2621004;46;20124;31
2024/03/04 18:27:11;;;;;;;61.75;30.75;;;9.10;99.90;;;;;;2602575;54;20765;31
2024/03/04 18:29:51;;;;;;;59.28;29.50;;;9.10;99.90;;;;;;2621052;46;20042;31
2024/03/04 18:32:31;;;;;;;;;;;9.10;99.90;;;;;;2602759;54;20909;31
2024/03/04 18:38:34;;;;;;;59.10;31.00;;;9.00;99.90;;;;;;2621007;46;20896;31
2024/03/04 18:41:23;;;;;;;55.15;29.92;;;9.00;99.90;;;;;;2602657;54;20027;31
2024/03/04 18:44:15;;;;;;;57.58;28.98;;;9.00;99.90;;;;;;2602377;54;20030;31
2024/03/04 18:47:02;;;;;;;57.58;28.48;;;9.00;99.90;;;;;;2602596;54;21902;31
2024/03/04 18:49:47;;;;;;;57.22;27.70;;;9.00;99.90;;;;;;2602490;54;20054;31
2024/03/04 18:52:40;;;;;;;55.50;26.90;;;9.00;99.90;;;;;;2602604;54;20862;31
2024/03/04 18:55:21;;;;;;;55.33;29.70;;;9.00;99.90;;;;;;2602484;54;20030;31
2024/03/04 18:58:09;;;;;;;56.10;26.73;;;9.00;99.90;;;;;;2602419;54;20031;31
2024/03/04 19:00:57;;;;;;;57.78;29.10;;;9.00;99.90;;;;;;2602374;54;20890;31
2024/03/04 19:03:40;;;;;;;58.53;30.52;;;9.00;99.90;;;;;;2620703;46;20086;31
2024/03/04 19:06:29;;;;;;;61.30;29.40;;;9.00;99.90;;;;;;2700734;39;21489;31
2024/03/04 19:09:16;;;;;;;58.67;29.52;;;9.00;99.90;;;;;;2602360;54;20098;31
2024/03/04 19:12:06;;;;;;;57.55;28.92;;;8.90;99.90;;;;;;2602448;54;20053;31
2024/03/04 19:14:42;;;;;;;65.07;31.17;;;9.00;99.90;;;;;;2620955;46;20101;31
2024/03/04 19:17:27;;;;;;;63.58;30.23;;;9.00;99.90;;;;;;2602337;54;20103;31
2024/03/04 19:20:04;;;;;;;66.13;30.47;;;9.00;99.90;;;;;;2602462;54;21939;31
2024/03/04 19:22:41;;;;;;;63.05;29.42;;;9.00;99.90;;;;;;2620263;47;20973;31
2024/03/04 19:25:22;;;;;;;57.53;28.80;;;8.90;99.90;;;;;;2602397;54;20900;31
2024/03/04 19:28:23;;;;;;;55.70;29.40;;;8.90;99.90;;;;;;2602405;54;20030;31
2024/03/04 19:31:05;;;;;;;57.23;29.57;;;8.90;99.90;;;;;;2602212;54;20068;31
2024/03/04 19:33:58;;;;;;;56.30;27.10;;;8.90;99.90;;;;;;2602151;54;20917;31
2024/03/04 19:36:46;;;;;;;64.47;28.70;;;8.80;99.90;;;;;;2602335;54;20068;31
2024/03/04 19:39:29;;;;;;;54.67;28.35;;;8.80;99.90;;;;;;2602302;54;20897;31
2024/03/04 19:42:07;;;;;;;51.22;27.40;;;8.80;99.90;;;;;;2621578;47;20049;31
2024/03/04 19:44:43;;;;;;;63.10;28.60;;;8.90;99.90;;;;;;2603128;54;20022;31
2024/03/04 19:47:28;;;;;;;64.27;33.57;;;8.90;99.90;;;;;;2621282;46;20807;31
2024/03/04 19:50:15;;;;;;;70.63;37.78;;;9.00;99.90;;;;;;2602809;54;20889;31
2024/03/04 19:52:52;;;;;;;70.10;38.13;;;9.00;99.90;;;;;;2603027;54;20056;31
2024/03/04 20:01:39;;;;;;;55.80;27.67;;;8.90;99.90;;;;;;2603150;54;20883;31
2024/03/04 20:04:37;;;;;;;60.38;28.73;;;8.90;99.90;;;;;;2603175;54;20030;31
2024/03/04 20:10:44;;;;;;;55.55;28.55;;;8.90;99.90;;;;;;2605847;46;21326;31
2024/03/04 20:13:37;;;;;;;56.90;29.00;;;8.90;99.90;;;;;;2621747;46;20834;31
2024/03/04 20:16:23;;;;;;;58.50;29.43;;;8.80;99.90;;;;;;2602888;54;20107;31
2024/03/04 20:21:53;;;;;;;61.70;29.45;;;8.70;99.90;;;;;;2602816;54;20033;31
2024/03/04 20:24:40;;;;;;;51.33;27.48;;;8.70;99.90;;;;;;2602907;54;20104;31
2024/03/04 20:27:17;;;;;;;59.35;30.05;;;8.60;99.90;;;;;;2603019;54;20834;31
2024/03/04 20:29:59;;;;;;;63.23;29.13;;;8.60;99.90;;;;;;2701528;39;20638;31
2024/03/04 20:32:36;;;;;;;63.90;29.73;;;8.60;99.90;;;;;;2620747;46;20222;31
2024/03/04 20:38:11;;;;;;;57.83;28.45;;;8.60;99.90;;;;;;2602711;54;21064;31
2024/03/04 20:40:56;;;;;;;59.58;28.77;;;8.50;99.90;;;;;;2620327;46;20029;31
2024/03/04 20:46:41;;;;;;;62.10;29.73;;;8.60;99.90;;;;;;2927168;46;20247;31
2024/03/04 20:54:54;;;;;;;65.60;30.95;;;8.50;99.90;;;;;;2621228;46;20889;31